Nenana Municipal Airport Nenana US
ICAO: PANN
IATA:
Category: Medium
Scheduled Services:

Elevation: 362 ft
TransAlt. 18000 ft.

Airport Communications:
FAIRBANKS APP/DEP:125.35
ASOS:125.2
CTAF:122.1
FAIRBANKS RDO:122.5
TWEB:115.8

PANN Zoom In..

If you have problems with the map follow the link
https://www.worldairports.se/pages/airport.php?
ICAO=PANN

Runways:

(A) RW 04L length 4600 ft width 100 ft
---- / hdg 38

(B) RW 04R length 2520 ft width 60 ft
---- / hdg 38

(C) RW 22L length 2520 ft width 60 ft
---- / hdg 218

(D) RW 22R length 4600 ft width 100 ft
---- / hdg 218

Location; PANN
Day. 27 / Time. 00.53 Zulu
* Altimeter: 29.72
* Temperature: -24° c. 11.2°f.
* Wind from: 000° Speed 00 kn.
Dewpoint: -29° c.
Visibility: 1 m.
Clouds: Overcast 3000 ft.
Conditions: Light Snow.

PANN 270053Z AUTO 00000KT 1 1/2SM -SN OVC030 M24/M29 A2972 RMK AO2 SLP085 P0000 T12441289 TSNO


Wind - Calm.

 
 
jpsmedia worldairports.se 2020   terms of use